sensor_id;sensor_type;location;lat;lon;timestamp;pressure;altitude;pressure_sealevel;temperature;humidity
19096;BME280;9680;52.520;13.332;2023-04-02T00:01:12;100955.97;;;3.60;79.86
19096;BME280;9680;52.520;13.332;2023-04-02T00:06:49;100967.03;;;3.78;78.96
19096;BME280;9680;52.520;13.332;2023-04-02T00:09:31;100973.06;;;3.75;78.42
19096;BME280;9680;52.520;13.332;2023-04-02T00:12:12;100977.34;;;3.75;78.69
19096;BME280;9680;52.520;13.332;2023-04-02T00:14:46;100981.59;;;3.82;78.78
19096;BME280;9680;52.520;13.332;2023-04-02T00:17:14;100974.75;;;3.81;77.84
19096;BME280;9680;52.520;13.332;2023-04-02T00:19:45;100979.03;;;3.84;77.82
19096;BME280;9680;52.520;13.332;2023-04-02T00:22:17;100981.56;;;3.90;77.70
19096;BME280;9680;52.520;13.332;2023-04-02T00:24:47;100981.53;;;3.98;77.90
19096;BME280;9680;52.520;13.332;2023-04-02T00:27:15;100985.78;;;4.00;77.17
19096;BME280;9680;52.520;13.332;2023-04-02T00:29:47;100978.94;;;4.01;76.38
19096;BME280;9680;52.520;13.332;2023-04-02T00:32:20;100988.41;;;3.94;75.96
19096;BME280;9680;52.520;13.332;2023-04-02T00:34:48;100992.72;;;3.92;75.15
19096;BME280;9680;52.520;13.332;2023-04-02T00:37:17;100993.59;;;3.91;75.68
19096;BME280;9680;52.520;13.332;2023-04-02T00:39:50;101004.72;;;3.96;75.78
19096;BME280;9680;52.520;13.332;2023-04-02T00:42:18;101008.16;;;3.98;75.75
19096;BME280;9680;52.520;13.332;2023-04-02T00:44:48;101016.72;;;4.05;75.74
19096;BME280;9680;52.520;13.332;2023-04-02T00:47:19;101014.13;;;4.06;75.45
19096;BME280;9680;52.520;13.332;2023-04-02T00:49:49;101018.44;;;4.03;75.03
19096;BME280;9680;52.520;13.332;2023-04-02T00:52:22;101024.50;;;3.99;75.00
19096;BME280;9680;52.520;13.332;2023-04-02T00:54:53;101017.66;;;3.88;74.35
19096;BME280;9680;52.520;13.332;2023-04-02T00:57:25;101027.22;;;3.72;74.67
19096;BME280;9680;52.520;13.332;2023-04-02T00:59:55;101033.25;;;3.65;74.67
19096;BME280;9680;52.520;13.332;2023-04-02T01:02:27;101030.66;;;3.68;75.14
19096;BME280;9680;52.520;13.332;2023-04-02T01:04:57;101036.66;;;3.73;75.43
19096;BME280;9680;52.520;13.332;2023-04-02T01:07:42;101029.75;;;3.75;75.36
19096;BME280;9680;52.520;13.332;2023-04-02T01:10:24;101040.94;;;3.77;74.86
19096;BME280;9680;52.520;13.332;2023-04-02T01:13:03;101046.09;;;3.70;74.75
19096;BME280;9680;52.520;13.332;2023-04-02T01:15:36;101045.28;;;3.64;74.98
19096;BME280;9680;52.520;13.332;2023-04-02T01:18:17;101049.56;;;3.70;75.38
19096;BME280;9680;52.520;13.332;2023-04-02T01:23:58;101051.22;;;3.77;74.88
19096;BME280;9680;52.520;13.332;2023-04-02T01:29:22;101068.47;;;3.66;74.15
19096;BME280;9680;52.520;13.332;2023-04-02T01:31:52;101077.88;;;3.64;74.57
19096;BME280;9680;52.520;13.332;2023-04-02T01:34:22;101077.03;;;3.70;74.90
19096;BME280;9680;52.520;13.332;2023-04-02T01:37:07;101081.31;;;3.75;75.05
19096;BME280;9680;52.520;13.332;2023-04-02T01:39:55;101086.44;;;3.78;74.72
19096;BME280;9680;52.520;13.332;2023-04-02T01:42:28;101094.16;;;3.82;73.97
19096;BME280;9680;52.520;13.332;2023-04-02T01:45:03;101090.72;;;3.81;74.70
19096;BME280;9680;52.520;13.332;2023-04-02T01:47:30;101096.72;;;3.86;74.28
19096;BME280;9680;52.520;13.332;2023-04-02T01:50:00;101103.56;;;3.87;74.26
19096;BME280;9680;52.520;13.332;2023-04-02T01:52:34;101107.06;;;3.82;72.93
19096;BME280;9680;52.520;13.332;2023-04-02T01:55:02;101113.94;;;3.79;73.58
19096;BME280;9680;52.520;13.332;2023-04-02T01:57:30;101109.63;;;3.77;72.40
19096;BME280;9680;52.520;13.332;2023-04-02T01:59:59;101113.06;;;3.76;72.25
19096;BME280;9680;52.520;13.332;2023-04-02T02:02:39;101120.84;;;3.71;72.21
19096;BME280;9680;52.520;13.332;2023-04-02T02:05:11;101130.28;;;3.72;72.48
19096;BME280;9680;52.520;13.332;2023-04-02T02:07:41;101135.41;;;3.74;71.83
19096;BME280;9680;52.520;13.332;2023-04-02T02:10:13;101140.59;;;3.71;71.98
19096;BME280;9680;52.520;13.332;2023-04-02T02:12:42;101148.31;;;3.71;71.91
19096;BME280;9680;52.520;13.332;2023-04-02T02:15:15;101152.63;;;3.62;70.56
19096;BME280;9680;52.520;13.332;2023-04-02T02:17:42;101152.63;;;3.58;71.95
19096;BME280;9680;52.520;13.332;2023-04-02T02:20:10;101156.94;;;3.63;71.22
19096;BME280;9680;52.520;13.332;2023-04-02T02:22:39;101162.94;;;3.61;71.25
19096;BME280;9680;52.520;13.332;2023-04-02T02:25:10;101159.47;;;3.70;70.66
19096;BME280;9680;52.520;13.332;2023-04-02T02:27:56;101174.09;;;3.61;70.81
19096;BME280;9680;52.520;13.332;2023-04-02T02:30:29;101174.09;;;3.63;71.12
19096;BME280;9680;52.520;13.332;2023-04-02T02:33:02;101176.66;;;3.63;70.39
19096;BME280;9680;52.520;13.332;2023-04-02T02:35:36;101173.22;;;3.61;70.61
19096;BME280;9680;52.520;13.332;2023-04-02T02:38:28;101177.53;;;3.60;71.11
19096;BME280;9680;52.520;13.332;2023-04-02T02:41:07;101179.25;;;3.60;70.69
19096;BME280;9680;52.520;13.332;2023-04-02T02:43:38;101190.41;;;3.59;71.03
19096;BME280;9680;52.520;13.332;2023-04-02T02:46:10;101195.59;;;3.65;71.21
19096;BME280;9680;52.520;13.332;2023-04-02T02:48:39;101195.56;;;3.68;71.06
19096;BME280;9680;52.520;13.332;2023-04-02T02:51:16;101199.84;;;3.74;70.75
19096;BME280;9680;52.520;13.332;2023-04-02T02:53:48;101203.31;;;3.68;70.73
19096;BME280;9680;52.520;13.332;2023-04-02T02:56:18;101206.72;;;3.69;70.71
19096;BME280;9680;52.520;13.332;2023-04-02T02:58:49;101208.47;;;3.68;70.70
19096;BME280;9680;52.520;13.332;2023-04-02T03:01:22;101213.59;;;3.70;70.93
19096;BME280;9680;52.520;13.332;2023-04-02T03:03:52;101221.34;;;3.63;70.48
19096;BME280;9680;52.520;13.332;2023-04-02T03:06:21;101224.78;;;3.59;70.41
19096;BME280;9680;52.520;13.332;2023-04-02T03:09:00;101235.06;;;3.55;70.76
19096;BME280;9680;52.520;13.332;2023-04-02T03:11:35;101237.66;;;3.55;70.80
19096;BME280;9680;52.520;13.332;2023-04-02T03:14:14;101248.84;;;3.58;71.49
19096;BME280;9680;52.520;13.332;2023-04-02T03:16:48;101253.13;;;3.67;70.90
19096;BME280;9680;52.520;13.332;2023-04-02T03:19:25;101254.00;;;3.66;71.09
19096;BME280;9680;52.520;13.332;2023-04-02T03:21:57;101256.56;;;3.72;71.22
19096;BME280;9680;52.520;13.332;2023-04-02T03:24:34;101260.84;;;3.70;70.58
19096;BME280;9680;52.520;13.332;2023-04-02T03:27:05;101260.00;;;3.71;70.74
19096;BME280;9680;52.520;13.332;2023-04-02T03:29:38;101266.00;;;3.75;70.39
19096;BME280;9680;52.520;13.332;2023-04-02T03:32:15;101271.16;;;3.69;70.50
19096;BME280;9680;52.520;13.332;2023-04-02T03:34:47;101278.03;;;3.74;70.94
19096;BME280;9680;52.520;13.332;2023-04-02T03:37:21;101278.03;;;3.81;70.82
19096;BME280;9680;52.520;13.332;2023-04-02T03:39:52;101288.31;;;3.82;70.69
19096;BME280;9680;52.520;13.332;2023-04-02T03:42:24;101292.63;;;3.78;70.37
19096;BME280;9680;52.520;13.332;2023-04-02T03:44:56;101295.22;;;3.75;70.72
19096;BME280;9680;52.520;13.332;2023-04-02T03:47:30;101301.22;;;3.71;70.91
19096;BME280;9680;52.520;13.332;2023-04-02T03:50:02;101300.38;;;3.75;71.04
19096;BME280;9680;52.520;13.332;2023-04-02T03:52:34;101312.38;;;3.84;71.44
19096;BME280;9680;52.520;13.332;2023-04-02T03:55:10;101308.09;;;3.85;70.99
19096;BME280;9680;52.520;13.332;2023-04-02T03:57:46;101320.97;;;3.85;70.82
19096;BME280;9680;52.520;13.332;2023-04-02T04:00:21;101314.09;;;3.82;71.00
19096;BME280;9680;52.520;13.332;2023-04-02T04:02:59;101316.66;;;3.90;71.17
19096;BME280;9680;52.520;13.332;2023-04-02T04:05:29;101326.97;;;3.90;70.48
19096;BME280;9680;52.520;13.332;2023-04-02T04:08:01;101324.41;;;3.79;70.28
19096;BME280;9680;52.520;13.332;2023-04-02T04:10:29;101333.00;;;3.78;70.53
19096;BME280;9680;52.520;13.332;2023-04-02T04:13:03;101348.47;;;3.76;70.21
19096;BME280;9680;52.520;13.332;2023-04-02T04:15:34;101346.75;;;3.74;70.50
19096;BME280;9680;52.520;13.332;2023-04-02T04:18:08;101352.78;;;3.77;70.52
19096;BME280;9680;52.520;13.332;2023-04-02T04:20:47;101349.31;;;3.80;70.54
19096;BME280;9680;52.520;13.332;2023-04-02T04:23:26;101347.59;;;3.85;70.56
19096;BME280;9680;52.520;13.332;2023-04-02T04:25:59;101360.50;;;3.87;70.58
19096;BME280;9680;52.520;13.332;2023-04-02T04:28:35;101360.50;;;3.90;70.47
19096;BME280;9680;52.520;13.332;2023-04-02T04:31:14;101369.06;;;3.87;70.34
19096;BME280;9680;52.520;13.332;2023-04-02T04:33:52;101377.69;;;3.91;70.28
19096;BME280;9680;52.520;13.332;2023-04-02T04:36:31;101387.13;;;3.87;70.54
19096;BME280;9680;52.520;13.332;2023-04-02T04:39:07;101387.97;;;3.89;70.56
19096;BME280;9680;52.520;13.332;2023-04-02T04:41:40;101398.28;;;3.89;70.25
19096;BME280;9680;52.520;13.332;2023-04-02T04:44:13;101399.16;;;3.85;70.13
19096;BME280;9680;52.520;13.332;2023-04-02T04:46:48;101403.44;;;3.83;70.21
19096;BME280;9680;52.520;13.332;2023-04-02T04:49:24;101404.31;;;3.85;70.04
19096;BME280;9680;52.520;13.332;2023-04-02T04:51:56;101406.03;;;3.78;70.35
19096;BME280;9680;52.520;13.332;2023-04-02T04:54:25;101415.50;;;3.83;70.25
19096;BME280;9680;52.520;13.332;2023-04-02T04:56:57;101420.63;;;3.87;70.81
19096;BME280;9680;52.520;13.332;2023-04-02T04:59:28;101425.78;;;3.93;70.48
19096;BME280;9680;52.520;13.332;2023-04-02T05:02:00;101421.50;;;3.88;70.20
19096;BME280;9680;52.520;13.332;2023-04-02T05:04:35;101427.53;;;3.87;70.46
19096;BME280;9680;52.520;13.332;2023-04-02T05:07:08;101440.41;;;3.90;70.80
19096;BME280;9680;52.520;13.332;2023-04-02T05:09:39;101435.25;;;3.87;70.41
19096;BME280;9680;52.520;13.332;2023-04-02T05:12:17;101444.72;;;3.88;70.79
19096;BME280;9680;52.520;13.332;2023-04-02T05:14:50;101457.59;;;3.96;71.13
19096;BME280;9680;52.520;13.332;2023-04-02T05:17:20;101451.59;;;4.00;70.54
19096;BME280;9680;52.520;13.332;2023-04-02T05:19:54;101461.03;;;4.02;71.10
19096;BME280;9680;52.520;13.332;2023-04-02T05:22:27;101462.75;;;4.00;70.22
19096;BME280;9680;52.520;13.332;2023-04-02T05:25:01;101469.63;;;3.95;71.06
19096;BME280;9680;52.520;13.332;2023-04-02T05:27:39;101483.41;;;4.05;71.28
19096;BME280;9680;52.520;13.332;2023-04-02T05:30:16;101481.66;;;4.05;70.61
19096;BME280;9680;52.520;13.332;2023-04-02T05:32:49;101479.94;;;3.93;70.26
19096;BME280;9680;52.520;13.332;2023-04-02T05:35:30;101480.81;;;3.94;70.73
19096;BME280;9680;52.520;13.332;2023-04-02T05:37:58;101496.28;;;4.02;70.86
19096;BME280;9680;52.520;13.332;2023-04-02T05:40:31;101498.88;;;4.02;69.92
19096;BME280;9680;52.520;13.332;2023-04-02T05:43:02;101505.72;;;3.93;70.33
19096;BME280;9680;52.520;13.332;2023-04-02T05:45:35;101508.31;;;3.98;69.89
19096;BME280;9680;52.520;13.332;2023-04-02T05:48:12;101510.88;;;3.89;70.00
19096;BME280;9680;52.520;13.332;2023-04-02T05:50:46;101516.03;;;3.86;70.47
19096;BME280;9680;52.520;13.332;2023-04-02T05:53:22;101519.44;;;3.86;70.37
19096;BME280;9680;52.520;13.332;2023-04-02T05:55:55;101516.00;;;3.84;70.74
19096;BME280;9680;52.520;13.332;2023-04-02T05:58:30;101520.31;;;3.87;70.38
19096;BME280;9680;52.520;13.332;2023-04-02T06:01:23;101522.03;;;3.91;70.58
19096;BME280;9680;52.520;13.332;2023-04-02T06:03:59;101535.81;;;4.08;69.55
19096;BME280;9680;52.520;13.332;2023-04-02T06:06:46;101535.81;;;4.02;69.16
19096;BME280;9680;52.520;13.332;2023-04-02T06:09:19;101544.44;;;4.09;68.98
19096;BME280;9680;52.520;13.332;2023-04-02T06:14:34;101552.19;;;4.31;68.75
19096;BME280;9680;52.520;13.332;2023-04-02T06:17:03;101547.91;;;4.31;68.82
19096;BME280;9680;52.520;13.332;2023-04-02T06:19:34;101558.22;;;4.33;68.24
19096;BME280;9680;52.520;13.332;2023-04-02T06:22:14;101559.97;;;4.39;68.53
19096;BME280;9680;52.520;13.332;2023-04-02T06:24:48;101567.69;;;4.60;68.05
19096;BME280;9680;52.520;13.332;2023-04-02T06:27:20;101568.56;;;4.56;66.40
19096;BME280;9680;52.520;13.332;2023-04-02T06:29:53;101574.56;;;4.57;66.40
19096;BME280;9680;52.520;13.332;2023-04-02T06:32:23;101574.59;;;4.58;66.75
19096;BME280;9680;52.520;13.332;2023-04-02T06:34:52;101578.88;;;4.69;66.32
19096;BME280;9680;52.520;13.332;2023-04-02T06:37:25;101590.94;;;4.70;65.75
19096;BME280;9680;52.520;13.332;2023-04-02T06:40:00;101583.19;;;4.73;66.03
19096;BME280;9680;52.520;13.332;2023-04-02T06:42:31;101595.22;;;4.94;65.74
19096;BME280;9680;52.520;13.332;2023-04-02T06:45:13;101596.94;;;4.98;64.36
19096;BME280;9680;52.520;13.332;2023-04-02T06:48:09;101610.69;;;5.31;64.08
19096;BME280;9680;52.520;13.332;2023-04-02T06:50:45;101606.38;;;5.32;62.59
19096;BME280;9680;52.520;13.332;2023-04-02T06:53:20;101598.59;;;5.43;63.09
19096;BME280;9680;52.520;13.332;2023-04-02T06:55:52;101614.09;;;5.49;62.19
19096;BME280;9680;52.520;13.332;2023-04-02T06:58:26;101626.19;;;5.27;61.45
19096;BME280;9680;52.520;13.332;2023-04-02T07:00:53;101625.34;;;5.21;62.05
19096;BME280;9680;52.520;13.332;2023-04-02T07:03:32;101625.34;;;5.01;61.58
19096;BME280;9680;52.520;13.332;2023-04-02T07:06:14;101628.81;;;5.08;62.69
19096;BME280;9680;52.520;13.332;2023-04-02T07:08:50;101628.78;;;5.22;61.11
19096;BME280;9680;52.520;13.332;2023-04-02T07:11:24;101634.84;;;5.07;62.15
19096;BME280;9680;52.520;13.332;2023-04-02T07:13:56;101644.28;;;5.34;62.93
19096;BME280;9680;52.520;13.332;2023-04-02T07:16:28;101630.44;;;5.52;62.30
19096;BME280;9680;52.520;13.332;2023-04-02T07:19:02;101653.66;;;5.66;61.12
19096;BME280;9680;52.520;13.332;2023-04-02T07:21:32;101644.19;;;5.61;59.63
19096;BME280;9680;52.520;13.332;2023-04-02T07:24:03;101644.16;;;5.72;59.08
19096;BME280;9680;52.520;13.332;2023-04-02T07:26:30;101650.22;;;5.71;58.72
19096;BME280;9680;52.520;13.332;2023-04-02T07:28:57;101651.97;;;5.56;58.56
19096;BME280;9680;52.520;13.332;2023-04-02T07:31:33;101643.38;;;5.46;58.77
19096;BME280;9680;52.520;13.332;2023-04-02T07:34:11;101652.81;;;5.60;59.22
19096;BME280;9680;52.520;13.332;2023-04-02T07:40:24;101660.50;;;5.86;56.31
19096;BME280;9680;52.520;13.332;2023-04-02T07:43:01;101676.91;;;5.73;56.88
19096;BME280;9680;52.520;13.332;2023-04-02T07:45:32;101670.88;;;5.81;56.65
19096;BME280;9680;52.520;13.332;2023-04-02T07:48:04;101669.13;;;5.79;56.93
19096;BME280;9680;52.520;13.332;2023-04-02T07:50:32;101679.41;;;6.08;57.47
19096;BME280;9680;52.520;13.332;2023-04-02T07:53:03;101684.50;;;6.27;56.53
19096;BME280;9680;52.520;13.332;2023-04-02T07:55:33;101687.06;;;6.39;54.84
19096;BME280;9680;52.520;13.332;2023-04-02T07:58:00;101681.00;;;6.39;55.16
19096;BME280;9680;52.520;13.332;2023-04-02T08:00:27;101701.63;;;6.53;55.79
19096;BME280;9680;52.520;13.332;2023-04-02T08:02:55;101697.31;;;6.55;54.49
19096;BME280;9680;52.520;13.332;2023-04-02T08:05:24;101713.00;;;6.25;54.11
19096;BME280;9680;52.520;13.332;2023-04-02T08:07:55;101711.28;;;6.21;54.40
19096;BME280;9680;52.520;13.332;2023-04-02T08:10:23;101714.69;;;6.30;54.86
19096;BME280;9680;52.520;13.332;2023-04-02T08:12:57;101724.13;;;6.41;54.23
19096;BME280;9680;52.520;13.332;2023-04-02T08:15:26;101720.75;;;6.22;54.36
19096;BME280;9680;52.520;13.332;2023-04-02T08:17:53;101724.22;;;6.18;54.66
19096;BME280;9680;52.520;13.332;2023-04-02T08:20:21;101725.06;;;6.22;55.01
19096;BME280;9680;52.520;13.332;2023-04-02T08:22:52;101733.69;;;6.24;54.25
19096;BME280;9680;52.520;13.332;2023-04-02T08:25:19;101734.53;;;6.29;54.53
19096;BME280;9680;52.520;13.332;2023-04-02T08:27:47;101730.22;;;6.31;54.91
19096;BME280;9680;52.520;13.332;2023-04-02T08:30:28;101742.22;;;6.46;55.65
19096;BME280;9680;52.520;13.332;2023-04-02T08:33:00;101755.22;;;6.38;55.61
19096;BME280;9680;52.520;13.332;2023-04-02T08:35:27;101744.03;;;6.29;55.31
19096;BME280;9680;52.520;13.332;2023-04-02T08:37:55;101742.34;;;6.21;55.77
19096;BME280;9680;52.520;13.332;2023-04-02T08:40:25;101756.97;;;6.30;56.75
19096;BME280;9680;52.520;13.332;2023-04-02T08:43:16;101760.38;;;6.37;56.33
19096;BME280;9680;52.520;13.332;2023-04-02T08:45:57;101754.34;;;6.38;56.33
19096;BME280;9680;52.520;13.332;2023-04-02T08:48:30;101766.41;;;6.42;56.40
19096;BME280;9680;52.520;13.332;2023-04-02T08:50:59;101775.91;;;6.38;55.50
19096;BME280;9680;52.520;13.332;2023-04-02T08:53:29;101788.00;;;6.39;55.95
19096;BME280;9680;52.520;13.332;2023-04-02T08:56:01;101798.31;;;6.49;56.07
19096;BME280;9680;52.520;13.332;2023-04-02T08:58:38;101787.13;;;6.39;55.61
19096;BME280;9680;52.520;13.332;2023-04-02T09:01:18;101788.88;;;6.34;55.67
19096;BME280;9680;52.520;13.332;2023-04-02T09:03:48;101794.91;;;6.37;56.10
19096;BME280;9680;52.520;13.332;2023-04-02T09:06:18;101805.31;;;6.09;56.11
19096;BME280;9680;52.520;13.332;2023-04-02T09:08:47;101810.50;;;5.61;57.20
19096;BME280;9680;52.520;13.332;2023-04-02T09:11:22;101809.66;;;5.68;56.56
19096;BME280;9680;52.520;13.332;2023-04-02T09:13:54;101807.06;;;5.86;55.47
19096;BME280;9680;52.520;13.332;2023-04-02T09:16:33;101809.63;;;6.00;55.01
19096;BME280;9680;52.520;13.332;2023-04-02T09:19:13;101807.00;;;6.23;54.83
19096;BME280;9680;52.520;13.332;2023-04-02T09:21:44;101807.81;;;6.42;53.52
19096;BME280;9680;52.520;13.332;2023-04-02T09:24:13;101807.78;;;6.56;53.49
19096;BME280;9680;52.520;13.332;2023-04-02T09:26:40;101819.88;;;6.54;51.85
19096;BME280;9680;52.520;13.332;2023-04-02T09:29:39;101815.63;;;6.30;52.84
19096;BME280;9680;52.520;13.332;2023-04-02T09:32:20;101813.84;;;6.46;52.73
19096;BME280;9680;52.520;13.332;2023-04-02T09:34:48;101806.88;;;6.59;52.70
19096;BME280;9680;52.520;13.332;2023-04-02T09:37:17;101823.22;;;6.79;52.54
19096;BME280;9680;52.520;13.332;2023-04-02T09:39:45;101823.19;;;6.78;51.15
19096;BME280;9680;52.520;13.332;2023-04-02T09:42:29;101830.09;;;6.87;51.61
19096;BME280;9680;52.520;13.332;2023-04-02T09:45:19;101823.88;;;7.14;50.95
19096;BME280;9680;52.520;13.332;2023-04-02T09:47:48;101831.50;;;7.36;50.45
19096;BME280;9680;52.520;13.332;2023-04-02T09:50:27;101826.94;;;7.67;49.70
19096;BME280;9680;52.520;13.332;2023-04-02T09:52:55;101824.97;;;7.94;49.11
19096;BME280;9680;52.520;13.332;2023-04-02T09:55:24;101846.19;;;8.38;48.83
19096;BME280;9680;52.520;13.332;2023-04-02T09:58:09;101838.97;;;8.65;48.15
19096;BME280;9680;52.520;13.332;2023-04-02T10:00:37;101835.63;;;9.21;48.42
19096;BME280;9680;52.520;13.332;2023-04-02T10:03:18;101841.69;;;9.78;46.76
19096;BME280;9680;52.520;13.332;2023-04-02T10:05:47;101854.31;;;10.00;44.71
19096;BME280;9680;52.520;13.332;2023-04-02T10:08:17;101865.00;;;9.83;44.29
19096;BME280;9680;52.520;13.332;2023-04-02T10:10:47;101862.13;;;9.46;45.76
19096;BME280;9680;52.520;13.332;2023-04-02T10:13:22;101868.25;;;9.42;46.94
19096;BME280;9680;52.520;13.332;2023-04-02T10:15:53;101856.69;;;9.60;46.43
19096;BME280;9680;52.520;13.332;2023-04-02T10:18:32;101867.84;;;9.69;46.56
19096;BME280;9680;52.520;13.332;2023-04-02T10:21:02;101868.13;;;9.52;44.98
19096;BME280;9680;52.520;13.332;2023-04-02T10:23:30;101878.03;;;9.26;45.92
19096;BME280;9680;52.520;13.332;2023-04-02T10:26:06;101868.53;;;9.22;45.82
19096;BME280;9680;52.520;13.332;2023-04-02T10:28:46;101880.78;;;9.14;46.64
19096;BME280;9680;52.520;13.332;2023-04-02T10:31:20;101895.31;;;8.62;45.49
19096;BME280;9680;52.520;13.332;2023-04-02T10:33:57;101889.00;;;7.95;46.71
19096;BME280;9680;52.520;13.332;2023-04-02T10:36:34;101894.81;;;8.22;47.44
19096;BME280;9680;52.520;13.332;2023-04-02T10:39:11;101892.75;;;8.55;46.34
19096;BME280;9680;52.520;13.332;2023-04-02T10:41:46;101889.78;;;8.89;45.57
19096;BME280;9680;52.520;13.332;2023-04-02T10:44:50;101898.03;;;9.21;44.79
19096;BME280;9680;52.520;13.332;2023-04-02T10:47:28;101891.03;;;9.83;45.57
19096;BME280;9680;52.520;13.332;2023-04-02T10:50:11;101884.44;;;10.13;42.66
19096;BME280;9680;52.520;13.332;2023-04-02T10:52:47;101891.53;;;10.07;43.01
19096;BME280;9680;52.520;13.332;2023-04-02T10:55:21;101889.66;;;10.13;43.53
19096;BME280;9680;52.520;13.332;2023-04-02T10:57:50;101901.97;;;10.54;42.90
19096;BME280;9680;52.520;13.332;2023-04-02T11:00:22;101900.28;;;10.51;42.92
19096;BME280;9680;52.520;13.332;2023-04-02T11:02:53;101915.44;;;10.29;43.37
19096;BME280;9680;52.520;13.332;2023-04-02T11:05:29;101917.41;;;10.14;43.80
19096;BME280;9680;52.520;13.332;2023-04-02T11:08:03;101923.75;;;9.99;43.32
19096;BME280;9680;52.520;13.332;2023-04-02T11:10:34;101926.88;;;9.67;44.21
19096;BME280;9680;52.520;13.332;2023-04-02T11:13:08;101927.84;;;9.56;44.79
19096;BME280;9680;52.520;13.332;2023-04-02T11:15:39;101941.59;;;9.66;44.80
19096;BME280;9680;52.520;13.332;2023-04-02T11:18:20;101943.50;;;9.55;44.28
19096;BME280;9680;52.520;13.332;2023-04-02T11:21:06;101944.31;;;9.58;45.20
19096;BME280;9680;52.520;13.332;2023-04-02T11:23:53;101959.72;;;9.72;44.17
19096;BME280;9680;52.520;13.332;2023-04-02T11:26:31;101968.03;;;9.37;44.50
19096;BME280;9680;52.520;13.332;2023-04-02T11:29:03;101970.66;;;8.57;45.10
19096;BME280;9680;52.520;13.332;2023-04-02T11:31:32;101964.03;;;8.20;46.15
19096;BME280;9680;52.520;13.332;2023-04-02T11:33:59;101969.78;;;8.56;46.30
19096;BME280;9680;52.520;13.332;2023-04-02T11:37:02;101959.31;;;8.67;45.48
19096;BME280;9680;52.520;13.332;2023-04-02T11:39:47;101965.44;;;8.60;45.19
19096;BME280;9680;52.520;13.332;2023-04-02T11:42:31;101975.06;;;8.44;45.20
19096;BME280;9680;52.520;13.332;2023-04-02T11:48:26;101970.22;;;8.99;46.17
19096;BME280;9680;52.520;13.332;2023-04-02T11:50:53;101974.81;;;9.49;45.53
19096;BME280;9680;52.520;13.332;2023-04-02T11:53:26;101962.41;;;10.23;45.70
19096;BME280;9680;52.520;13.332;2023-04-02T11:56:16;101953.47;;;10.86;44.56
19096;BME280;9680;52.520;13.332;2023-04-02T11:58:59;101968.78;;;11.03;43.05
19096;BME280;9680;52.520;13.332;2023-04-02T12:01:53;101975.47;;;11.17;42.64
19096;BME280;9680;52.520;13.332;2023-04-02T12:05:00;101975.16;;;10.88;42.92
19096;BME280;9680;52.520;13.332;2023-04-02T12:08:04;101987.06;;;10.55;43.07
19096;BME280;9680;52.520;13.332;2023-04-02T12:10:52;101996.00;;;10.41;42.67
19096;BME280;9680;52.520;13.332;2023-04-02T12:13:47;101985.66;;;10.35;43.24
19096;BME280;9680;52.520;13.332;2023-04-02T12:16:15;101996.13;;;10.30;42.61
19096;BME280;9680;52.520;13.332;2023-04-02T12:18:42;102000.50;;;10.30;42.99
19096;BME280;9680;52.520;13.332;2023-04-02T12:21:14;102003.34;;;10.14;42.52
19096;BME280;9680;52.520;13.332;2023-04-02T12:23:44;101988.88;;;9.96;42.49
19096;BME280;9680;52.520;13.332;2023-04-02T12:26:27;102010.78;;;9.81;42.95
19096;BME280;9680;52.520;13.332;2023-04-02T12:29:23;102015.63;;;9.42;43.18
19096;BME280;9680;52.520;13.332;2023-04-02T12:31:51;102017.63;;;9.21;43.13
19096;BME280;9680;52.520;13.332;2023-04-02T12:34:20;102016.09;;;9.05;43.28
19096;BME280;9680;52.520;13.332;2023-04-02T12:36:52;102013.84;;;9.47;43.78
19096;BME280;9680;52.520;13.332;2023-04-02T12:39:20;102026.34;;;9.84;42.53
19096;BME280;9680;52.520;13.332;2023-04-02T12:41:49;102022.78;;;9.91;42.47
19096;BME280;9680;52.520;13.332;2023-04-02T12:44:17;102021.91;;;9.91;42.33
19096;BME280;9680;52.520;13.332;2023-04-02T12:46:46;102026.50;;;9.73;42.66
19096;BME280;9680;52.520;13.332;2023-04-02T12:49:24;102022.34;;;9.60;43.07
19096;BME280;9680;52.520;13.332;2023-04-02T12:51:52;102023.34;;;9.48;43.64
19096;BME280;9680;52.520;13.332;2023-04-02T12:54:20;102029.09;;;9.05;43.84
19096;BME280;9680;52.520;13.332;2023-04-02T12:56:49;102022.38;;;8.82;44.48
19096;BME280;9680;52.520;13.332;2023-04-02T12:59:34;102033.63;;;8.82;44.37
19096;BME280;9680;52.520;13.332;2023-04-02T13:02:17;102038.97;;;9.50;43.61
19096;BME280;9680;52.520;13.332;2023-04-02T13:04:48;102032.91;;;10.12;41.20
19096;BME280;9680;52.520;13.332;2023-04-02T13:07:17;102028.22;;;10.34;41.53
19096;BME280;9680;52.520;13.332;2023-04-02T13:09:46;102032.31;;;10.51;41.10
19096;BME280;9680;52.520;13.332;2023-04-02T13:12:28;102022.28;;;10.24;41.51
19096;BME280;9680;52.520;13.332;2023-04-02T13:14:58;102032.06;;;10.08;41.89
19096;BME280;9680;52.520;13.332;2023-04-02T13:17:37;102040.13;;;9.93;42.51
19096;BME280;9680;52.520;13.332;2023-04-02T13:20:30;102038.34;;;9.93;42.64
19096;BME280;9680;52.520;13.332;2023-04-02T13:22:59;102039.22;;;9.95;42.80
19096;BME280;9680;52.520;13.332;2023-04-02T13:25:29;102041.88;;;9.90;42.26
19096;BME280;9680;52.520;13.332;2023-04-02T13:27:58;102043.84;;;9.74;42.95
19096;BME280;9680;52.520;13.332;2023-04-02T13:30:26;102044.09;;;9.56;43.29
19096;BME280;9680;52.520;13.332;2023-04-02T13:32:53;102042.84;;;9.82;43.02
19096;BME280;9680;52.520;13.332;2023-04-02T13:35:20;102041.06;;;10.45;42.51
19096;BME280;9680;52.520;13.332;2023-04-02T13:37:47;102038.44;;;10.98;41.36
19096;BME280;9680;52.520;13.332;2023-04-02T13:40:16;102042.34;;;10.72;40.83
19096;BME280;9680;52.520;13.332;2023-04-02T13:42:44;102048.72;;;10.56;41.13
19096;BME280;9680;52.520;13.332;2023-04-02T13:45:21;102054.31;;;10.31;41.72
19096;BME280;9680;52.520;13.332;2023-04-02T13:47:48;102051.81;;;10.22;41.06
19096;BME280;9680;52.520;13.332;2023-04-02T13:50:19;102064.25;;;10.04;41.41
19096;BME280;9680;52.520;13.332;2023-04-02T13:52:47;102062.28;;;10.18;41.16
19096;BME280;9680;52.520;13.332;2023-04-02T13:55:14;102058.16;;;10.05;41.42